Nearby METAR Reports

This page may be slow to load as it queries the National Weather Service for data.

KBIS - Bismarck, North Dakota, USA
Distance from station: S 10mi, 15km
Updated: Tue, 02-Mar-2021 10:52pm CST
Clear
Clear
 Wind from NNE
Wind: NNE 7 mph , 11 km/h
Temperature: 34°F , 1°C
Wind Chill: 28°F , -2°C
Dew Point: 27°F , -3°C
Humidity: 75%
Barometer: 29.88 inHg , 1011.9 hPa
Clouds: Clear
Visibility: 10 miles , 16 km
2021/03/03 04:52 KBIS 030452Z AUTO 03006KT 10SM CLR 01/M03 A2988 RMK AO2 SLP129 T00061033
KDIK - Dickinson, North Dakota, USA
Distance from station: W 95mi, 154km
Updated: Tue, 02-Mar-2021 10:56pm CST
Few Clouds
Few Clouds
 Wind from ESE
Wind: ESE 6 mph , 9 km/h
Temperature: 34°F , 1°C
Wind Chill: 29°F , -2°C
Dew Point: 18°F , -8°C
Humidity: 51%
Barometer: 29.80 inHg , 1009.1 hPa
Clouds: Few Clouds
Visibility: 10 miles , 16 km
Cloud details: Few Clouds 12000 ft
2021/03/03 04:56 KDIK 030456Z AUTO 11005KT 10SM FEW120 01/M08 A2980 RMK AO2 SLP102 T00061078
 
KXWA - Williston, North Dakota, USA
Distance from station: NNW 2mi, 2km
Updated: Tue, 02-Mar-2021 10:51pm CST
Overcast
Overcast
 Wind from E
Wind: E 12 mph , 19 km/h
Temperature: 37°F , 3°C
Wind Chill: 29°F , -2°C
Dew Point: 28°F , -2°C
Humidity: 70%
Barometer: 29.81 inHg , 1009.5 hPa
Clouds: Overcast
Visibility: 10 miles , 16 km
Cloud details: Partly cloudy 4400 ft
Overcast 7500 ft
2021/03/03 04:51 KXWA 030451Z AUTO 10010KT 10SM SCT044 OVC075 03/M02 A2981 RMK AO2 RAB35E49 SLP120 P0000 T00281017
KFAR - Fargo, North Dakota, USA
Distance from station: NNW 4mi, 7km
Updated: Tue, 02-Mar-2021 10:53pm CST
Clear
Clear
 Wind from N
Wind: N 7 mph , 11 km/h
Temperature: 30°F , -1°C
Wind Chill: 23°F , -5°C
Dew Point: 27°F , -3°C
Humidity: 86%
Barometer: 29.91 inHg , 1012.9 hPa
Clouds: Clear
Visibility: 10 miles , 16 km
2021/03/03 04:53 KFAR 030453Z 35006KT 10SM CLR M01/M03 A2991 RMK AO2 SLP139 T10111028
 
KGFK - Grand Forks, North Dakota, USA
Distance from station: NNW 76mi, 123km
Updated: Tue, 02-Mar-2021 10:53pm CST
Partly cloudy
Partly cloudy
 Wind from NNW
Wind: NNW 6 mph , 9 km/h
Temperature: 23°F , -5°C
Wind Chill: 16°F , -9°C
Dew Point: 19°F , -7°C
Humidity: 86%
Barometer: 29.91 inHg , 1012.9 hPa
Clouds: Partly cloudy
Visibility: 10 miles , 16 km
Cloud details: Partly cloudy 15000 ft
2021/03/03 04:53 KGFK 030453Z 33005KT 10SM SCT150 M05/M07 A2991 RMK AO2 SLP138 T10501072
KMOT - Minot, North Dakota, USA
Distance from station: E 109mi, 175km
Updated: Tue, 02-Mar-2021 10:54pm CST
Mostly cloudy
Mostly cloudy
 Wind from ENE
Wind: ENE 3 mph , 6 km/h
Temperature: 28°F , -2°C
Dew Point: 25°F , -4°C
Humidity: 86%
Barometer: 29.85 inHg , 1010.8 hPa
Clouds: Mostly cloudy
Visibility: 10 miles , 16 km
Cloud details: Mostly cloudy 11000 ft
2021/03/03 04:54 KMOT 030454Z AUTO 06003KT 10SM BKN110 M02/M04 A2985 RMK AO2 SLP125 T10171039